Time;durP1;ratioP1;P1;durP2;ratioP2;P2;SDS_P1;SDS_P2;PMS_P1;PMS_P2;Temp;Humidity;BMP_temperature;BMP_pressure;BME280_temperature;BME280_humidity;BME280_pressure;Samples;Min_cycle;Max_cycle;Signal;HPM_P1;HPM_P2
2022/03/03 00:00:11;;;;;;;4.15;3.75;;;;;;;12.01;50.15;99499.66;1737184;82;21049;-70
2022/03/03 00:02:42;;;;;;;;;;;;;;;12.02;50.16;99497.84;1718985;83;21066;-70
2022/03/03 00:05:11;;;;;;;4.37;3.98;;;;;;;12.01;50.15;99493.01;1716458;83;20173;-69
2022/03/03 00:07:37;;;;;;;4.60;4.15;;;;;;;12.00;50.15;99490.86;1716255;83;21069;-69
2022/03/03 00:10:06;;;;;;;4.95;4.33;;;;;;;11.99;50.19;99494.55;1737594;82;21165;-68
2022/03/03 00:12:34;;;;;;;4.62;4.22;;;;;;;11.99;50.18;99482.56;1746152;82;21069;-69
2022/03/03 00:15:03;;;;;;;4.45;4.05;;;;;;;11.99;50.19;99483.89;1746145;82;21042;-69
2022/03/03 00:17:29;;;;;;;4.25;3.83;;;;;;;11.99;50.19;99485.23;1745214;82;22112;-69
2022/03/03 00:19:56;;;;;;;5.53;4.37;;;;;;;12.00;50.19;99486.86;1720789;82;21078;-69
2022/03/03 00:22:22;;;;;;;4.50;4.08;;;;;;;11.99;50.18;99485.23;1747226;81;21149;-69
2022/03/03 00:24:51;;;;;;;4.55;4.10;;;;;;;11.99;50.19;99483.89;1725646;82;21062;-69
2022/03/03 00:27:18;;;;;;;4.83;4.22;;;;;;;11.99;50.20;99483.89;1725824;82;21101;-70
2022/03/03 00:29:45;;;;;;;5.12;4.53;;;;;;;11.99;50.16;99479.91;1751078;82;20983;-69
2022/03/03 00:32:11;;;;;;;4.75;4.25;;;;;;;11.99;50.18;99479.91;1751358;82;21530;-69
2022/03/03 00:34:38;;;;;;;4.22;3.80;;;;;;;11.99;50.19;99471.06;1750146;81;22350;-68
2022/03/03 00:37:05;;;;;;;4.15;3.75;;;;;;;11.99;50.19;99474.58;1751063;82;21007;-70
2022/03/03 00:39:31;;;;;;;4.83;4.35;;;;;;;11.98;50.17;99466.25;1751198;82;21014;-69
2022/03/03 00:41:57;;;;;;;5.17;4.22;;;;;;;11.98;50.17;99462.27;1751273;82;21002;-69
2022/03/03 00:44:24;;;;;;;4.47;4.08;;;;;;;11.98;50.20;99465.44;1751356;82;21049;-69
2022/03/03 00:46:50;;;;;;;4.97;4.47;;;;;;;11.97;50.19;99465.92;1751332;82;21070;-69
2022/03/03 00:49:16;;;;;;;5.25;4.60;;;;;;;11.99;50.19;99472.40;1751319;82;21561;-70
2022/03/03 00:51:42;;;;;;;5.30;4.80;;;;;;;11.98;50.20;99470.25;1709651;82;21097;-69
2022/03/03 00:54:09;;;;;;;5.12;4.45;;;;;;;11.98;50.21;99464.92;1721295;83;21120;-69
2022/03/03 00:56:35;;;;;;;5.12;4.53;;;;;;;11.98;50.19;99462.77;1721350;83;21081;-69
2022/03/03 00:59:02;;;;;;;4.65;4.17;;;;;;;11.97;50.19;99455.27;1696601;83;21230;-70
2022/03/03 01:01:29;;;;;;;4.12;3.72;;;;;;;11.98;50.21;99456.12;1718382;82;21521;-70
2022/03/03 01:03:55;;;;;;;4.22;3.80;;;;;;;11.97;50.20;99457.11;1721340;83;21027;-69
2022/03/03 01:06:22;;;;;;;5.15;4.45;;;;;;;11.97;50.20;99455.78;1721237;83;21046;-70
2022/03/03 01:08:49;;;;;;;4.95;4.20;;;;;;;11.97;50.20;99455.78;1722342;82;21018;-70
2022/03/03 01:11:15;;;;;;;4.28;3.87;;;;;;;11.97;50.20;99462.44;1721432;83;21113;-69
2022/03/03 01:13:42;;;;;;;4.42;4.03;;;;;;;11.95;50.18;99455.96;1721196;83;21030;-69
2022/03/03 01:16:09;;;;;;;4.78;4.28;;;;;;;11.97;50.20;99462.44;1696364;83;21081;-69
2022/03/03 01:18:35;;;;;;;4.70;4.30;;;;;;;11.96;50.21;99456.81;1721340;83;21013;-70
2022/03/03 01:21:02;;;;;;;4.45;3.90;;;;;;;11.95;50.20;99457.30;1721257;83;21061;-70
2022/03/03 01:23:28;;;;;;;4.33;3.87;;;;;;;11.96;50.21;99447.49;1718643;83;21101;-68
2022/03/03 01:25:54;;;;;;;4.53;4.08;;;;;;;11.97;50.21;99450.46;1717438;82;21019;-69
2022/03/03 01:28:21;;;;;;;4.53;4.12;;;;;;;11.97;50.21;99448.61;1716619;83;21022;-70
2022/03/03 01:30:48;;;;;;;4.50;4.10;;;;;;;11.95;50.21;99447.97;1716374;83;21004;-70
2022/03/03 01:33:14;;;;;;;4.70;3.85;;;;;;;11.95;50.22;99448.48;1692088;83;21066;-69
2022/03/03 01:35:42;;;;;;;4.92;4.37;;;;;;;11.95;50.21;99454.63;1716259;83;21086;-69
2022/03/03 01:38:08;;;;;;;5.25;4.47;;;;;;;11.95;50.21;99451.97;1691624;83;21085;-69
2022/03/03 01:40:37;;;;;;;4.50;3.70;;;;;;;11.94;50.21;99446.34;1691724;83;21018;-69
2022/03/03 01:43:04;;;;;;;4.47;3.92;;;;;;;11.94;50.21;99446.34;1717290;82;21029;-70
2022/03/03 01:45:31;;;;;;;5.67;4.30;;;;;;;11.93;50.23;99446.00;1716548;83;21053;-70
2022/03/03 01:47:57;;;;;;;4.55;4.08;;;;;;;11.93;50.22;99447.34;1716707;83;21113;-69
2022/03/03 01:50:24;;;;;;;4.80;4.30;;;;;;;11.93;50.23;99444.67;1733200;82;21029;-69
2022/03/03 01:52:50;;;;;;;4.35;3.77;;;;;;;11.92;50.24;99440.38;1746579;82;21085;-69
2022/03/03 01:55:16;;;;;;;5.12;4.30;;;;;;;11.93;50.24;99434.54;1720660;82;21034;-70
2022/03/03 01:57:43;;;;;;;4.97;4.47;;;;;;;11.92;50.24;99432.39;1720517;82;21034;-70
2022/03/03 02:00:12;;;;;;;4.65;4.17;;;;;;;11.93;50.23;99434.02;1745165;82;21127;-69
2022/03/03 02:02:40;;;;;;;4.70;4.30;;;;;;;11.92;50.25;99424.41;1746388;82;21026;-68
2022/03/03 02:05:08;;;;;;;4.35;3.70;;;;;;;11.93;50.24;99428.70;1720606;82;21050;-69
2022/03/03 02:07:35;;;;;;;5.08;4.40;;;;;;;11.92;50.24;99429.73;1738101;82;20994;-69
2022/03/03 02:10:03;;;;;;;4.40;3.70;;;;;;;11.92;50.25;99432.39;1720602;82;21613;-68
2022/03/03 02:12:30;;;;;;;4.50;4.08;;;;;;;11.92;50.26;99431.06;1746419;82;21039;-69
2022/03/03 02:14:57;;;;;;;4.53;3.90;;;;;;;11.91;50.25;99432.05;1720809;82;20986;-69
2022/03/03 02:17:23;;;;;;;4.70;4.10;;;;;;;11.91;50.25;99425.41;1722005;82;21050;-69
2022/03/03 02:19:51;;;;;;;5.17;4.28;;;;;;;11.92;50.24;99426.25;1716234;83;21626;-69
2022/03/03 02:22:17;;;;;;;4.47;4.08;;;;;;;11.91;50.25;99421.41;1691673;83;21081;-69
2022/03/03 02:24:43;;;;;;;4.45;4.00;;;;;;;11.91;50.26;99424.07;1720827;83;21132;-69
2022/03/03 02:27:10;;;;;;;4.62;4.00;;;;;;;11.91;50.25;99420.08;1721536;83;21581;-69
2022/03/03 02:29:37;;;;;;;4.10;3.70;;;;;;;11.90;50.27;99417.11;1696198;83;21041;-70
2022/03/03 02:32:05;;;;;;;4.53;4.05;;;;;;;11.90;50.25;99410.94;1721232;83;21021;-69
2022/03/03 02:34:32;;;;;;;4.42;3.87;;;;;;;11.90;50.27;99411.78;1722302;82;21056;-69
2022/03/03 02:36:59;;;;;;;4.45;4.05;;;;;;;11.90;50.25;99411.78;1721431;83;21151;-69
2022/03/03 02:39:26;;;;;;;4.62;4.15;;;;;;;11.90;50.27;99409.13;1696273;83;21018;-69
2022/03/03 02:41:52;;;;;;;4.67;4.28;;;;;;;11.90;50.26;99402.95;1721288;83;21044;-70
2022/03/03 02:44:19;;;;;;;4.30;3.87;;;;;;;11.89;50.27;99402.13;1696381;83;21097;-68
2022/03/03 02:46:45;;;;;;;3.98;3.55;;;;;;;11.90;50.27;99398.96;1721200;83;21022;-69
2022/03/03 02:49:12;;;;;;;4.45;4.03;;;;;;;11.89;50.26;99398.14;1723778;82;21771;-70
2022/03/03 02:51:38;;;;;;;4.20;3.75;;;;;;;11.90;50.27;99400.30;1749976;82;21077;-69
2022/03/03 02:54:04;;;;;;;4.35;3.90;;;;;;;11.87;50.27;99393.48;1751149;82;21097;-69
2022/03/03 02:56:31;;;;;;;5.10;4.33;;;;;;;11.88;50.27;99392.97;1751224;82;21534;-69
2022/03/03 02:58:57;;;;;;;4.53;4.12;;;;;;;11.88;50.27;99388.98;1751414;82;21070;-69
2022/03/03 03:01:23;;;;;;;4.15;3.72;;;;;;;11.87;50.28;99381.50;1751295;82;21056;-69
2022/03/03 03:03:50;;;;;;;4.37;3.90;;;;;;;11.87;50.27;99380.17;1751532;82;21478;-69
2022/03/03 03:06:16;;;;;;;4.60;4.08;;;;;;;11.87;50.29;99380.69;1725403;82;21006;-69
2022/03/03 03:08:43;;;;;;;3.95;3.55;;;;;;;11.87;50.28;99376.69;1697999;83;21548;-69
2022/03/03 03:11:09;;;;;;;4.33;3.85;;;;;;;11.87;50.28;99372.19;1721437;83;21275;-69
2022/03/03 03:13:36;;;;;;;4.40;4.00;;;;;;;11.87;50.27;99376.18;1745613;82;21098;-69
2022/03/03 03:16:04;;;;;;;4.45;3.60;;;;;;;11.87;50.29;99368.19;1725583;82;20999;-70
2022/03/03 03:18:30;;;;;;;4.50;4.10;;;;;;;11.86;50.30;99367.89;1725425;82;21066;-69
2022/03/03 03:20:57;;;;;;;3.72;3.35;;;;;;;11.86;50.30;99361.72;1751168;82;21089;-69
2022/03/03 03:23:23;;;;;;;4.33;3.92;;;;;;;11.86;50.29;99365.23;1752154;80;21032;-68
2022/03/03 03:25:50;;;;;;;4.70;3.92;;;;;;;11.87;50.29;99355.41;1780248;80;22457;-69
2022/03/03 03:28:18;;;;;;;4.53;4.10;;;;;;;11.85;50.29;99358.24;1781624;80;21034;-70
2022/03/03 03:30:45;;;;;;;3.98;3.58;;;;;;;11.86;50.29;99343.09;1753058;80;20999;-69
2022/03/03 03:33:12;;;;;;;4.55;3.95;;;;;;;11.85;50.30;99341.45;1752878;80;21079;-69
2022/03/03 03:35:40;;;;;;;4.30;3.90;;;;;;;11.85;50.32;99347.59;1781468;80;21038;-68
2022/03/03 03:38:06;;;;;;;4.60;3.90;;;;;;;11.86;50.31;99339.09;1781472;80;21139;-70
2022/03/03 03:40:33;;;;;;;4.03;3.62;;;;;;;11.85;50.32;99341.45;1780240;80;21026;-70
2022/03/03 03:43:00;;;;;;;4.20;3.80;;;;;;;11.85;50.31;99344.12;1781619;80;21089;-70
2022/03/03 03:45:27;;;;;;;4.15;3.70;;;;;;;11.84;50.31;99337.98;1781818;80;21026;-70
2022/03/03 03:47:54;;;;;;;4.20;3.80;;;;;;;11.84;50.32;99335.80;1781785;80;21030;-69
2022/03/03 03:50:21;;;;;;;4.05;3.65;;;;;;;11.84;50.32;99335.31;1740848;81;21068;-69
2022/03/03 03:52:47;;;;;;;4.17;3.77;;;;;;;11.84;50.31;99328.66;1760542;81;21470;-69
2022/03/03 03:55:14;;;;;;;4.35;3.87;;;;;;;11.83;50.30;99327.00;1760848;81;21041;-69
2022/03/03 03:57:40;;;;;;;4.12;3.72;;;;;;;11.83;50.32;99329.66;1760431;80;21050;-69
2022/03/03 04:00:10;;;;;;;4.05;3.67;;;;;;;11.83;50.32;99327.00;1748406;82;21093;-69
2022/03/03 04:02:42;;;;;;;3.67;3.37;;;;;;;11.82;50.32;99324.03;1748315;82;22000;-69
2022/03/03 04:05:10;;;;;;;4.17;3.72;;;;;;;11.82;50.30;99320.04;1748370;81;21081;-69
2022/03/03 04:07:39;;;;;;;3.90;3.50;;;;;;;11.83;50.31;99329.66;1748190;82;21015;-70
2022/03/03 04:10:07;;;;;;;4.03;3.62;;;;;;;11.82;50.33;99321.38;1748318;82;21140;-70
2022/03/03 04:12:34;;;;;;;4.08;3.55;;;;;;;11.82;50.32;99324.03;1748276;82;21046;-69
2022/03/03 04:15:01;;;;;;;3.45;3.10;;;;;;;11.80;50.33;99313.56;1751283;80;21953;-70
2022/03/03 04:17:28;;;;;;;3.22;2.92;;;;;;;11.81;50.33;99315.72;1760431;81;21061;-70
2022/03/03 04:19:55;;;;;;;4.20;3.47;;;;;;;11.80;50.34;99320.70;1713888;81;21100;-69
2022/03/03 04:22:21;;;;;;;3.70;3.37;;;;;;;11.81;50.33;99319.70;1760139;81;21025;-69
2022/03/03 04:24:48;;;;;;;3.85;3.37;;;;;;;11.81;50.33;99323.70;1760898;80;21489;-70
2022/03/03 04:27:14;;;;;;;3.98;3.58;;;;;;;11.81;50.33;99317.05;1760784;81;21131;-71
2022/03/03 04:29:40;;;;;;;3.90;3.50;;;;;;;11.80;50.33;99317.56;1760915;81;21096;-69
2022/03/03 04:32:07;;;;;;;4.65;3.60;;;;;;;11.80;50.36;99320.70;1751833;81;21044;-69
2022/03/03 04:34:34;;;;;;;4.12;3.52;;;;;;;11.80;50.34;99312.72;1730453;83;21025;-69
2022/03/03 04:37:00;;;;;;;3.85;3.45;;;;;;;11.80;50.33;99317.56;1730487;83;21455;-69
2022/03/03 04:39:26;;;;;;;3.27;2.98;;;;;;;11.79;50.35;99307.91;1701361;83;21296;-69
2022/03/03 04:41:53;;;;;;;3.85;3.40;;;;;;;11.80;50.35;99316.71;1701247;83;21112;-69
2022/03/03 04:44:19;;;;;;;3.70;3.40;;;;;;;11.79;50.34;99316.41;1730504;83;21097;-70
2022/03/03 04:46:45;;;;;;;3.42;3.00;;;;;;;11.78;50.34;99310.27;1730623;83;21033;-69
2022/03/03 04:49:12;;;;;;;3.92;3.52;;;;;;;11.79;50.35;99309.75;1709759;81;21031;-69
2022/03/03 04:51:40;;;;;;;3.37;3.02;;;;;;;11.79;50.35;99315.08;1760520;81;21065;-69
2022/03/03 04:54:07;;;;;;;4.85;3.25;;;;;;;11.78;50.34;99308.94;1760591;81;21529;-69
2022/03/03 04:56:35;;;;;;;3.80;3.40;;;;;;;11.78;50.36;99315.59;1760594;81;21084;-69
2022/03/03 04:59:01;;;;;;;3.37;3.08;;;;;;;11.78;50.36;99313.41;1730532;81;22117;-69
2022/03/03 05:01:28;;;;;;;3.67;3.35;;;;;;;11.77;50.35;99317.92;1760648;81;21093;-69
2022/03/03 05:03:54;;;;;;;3.50;3.10;;;;;;;11.77;50.35;99307.79;1730711;81;21085;-69
2022/03/03 05:06:21;;;;;;;3.50;3.20;;;;;;;11.77;50.35;99307.27;1759835;80;20982;-69
2022/03/03 05:08:47;;;;;;;3.22;2.92;;;;;;;11.77;50.36;99307.27;1760554;81;21035;-69
2022/03/03 05:11:13;;;;;;;3.75;3.30;;;;;;;11.77;50.37;99305.94;1730427;81;21042;-69
2022/03/03 05:13:40;;;;;;;3.62;3.30;;;;;;;11.77;50.36;99306.45;1730776;81;21125;-69
2022/03/03 05:16:07;;;;;;;3.35;3.05;;;;;;;11.77;50.35;99301.14;1760583;81;21129;-69
2022/03/03 05:18:35;;;;;;;3.50;3.20;;;;;;;11.77;50.36;99303.80;1760477;81;21018;-69
2022/03/03 05:21:02;;;;;;;3.42;3.08;;;;;;;11.77;50.35;99300.63;1760455;81;21084;-69
2022/03/03 05:23:28;;;;;;;3.67;3.15;;;;;;;11.77;50.36;99299.80;1760399;80;21045;-71
2022/03/03 05:25:54;;;;;;;3.00;2.70;;;;;;;11.77;50.38;99299.80;1747189;81;21050;-69
2022/03/03 05:28:21;;;;;;;3.52;2.98;;;;;;;11.76;50.36;99302.13;1700842;83;21486;-69
2022/03/03 05:30:47;;;;;;;3.22;2.92;;;;;;;11.76;50.37;99303.46;1730121;83;20986;-69
2022/03/03 05:33:14;;;;;;;4.00;3.17;;;;;;;11.76;50.38;99295.48;1700984;83;21089;-69
2022/03/03 05:35:41;;;;;;;3.02;2.72;;;;;;;11.77;50.37;99302.47;1725188;83;21577;-70
2022/03/03 05:38:09;;;;;;;3.55;3.05;;;;;;;11.76;50.37;99302.13;1725177;83;21033;-69
2022/03/03 05:40:35;;;;;;;3.12;2.83;;;;;;;11.76;50.38;99296.33;1740314;80;21108;-69
2022/03/03 05:43:02;;;;;;;3.95;3.30;;;;;;;11.75;50.36;99295.17;1748171;82;21034;-70
2022/03/03 05:45:30;;;;;;;3.70;3.22;;;;;;;11.75;50.39;99294.66;1748471;82;21018;-70
2022/03/03 05:47:57;;;;;;;2.95;2.65;;;;;;;11.75;50.38;99298.66;1745292;82;21049;-71
2022/03/03 05:50:23;;;;;;;3.10;2.80;;;;;;;11.75;50.39;99295.99;1758722;81;21074;-69
2022/03/03 05:52:50;;;;;;;3.17;2.87;;;;;;;11.75;50.37;99301.31;1730458;81;22164;-69
2022/03/03 05:55:17;;;;;;;3.45;3.15;;;;;;;11.75;50.38;99299.17;1760611;81;21028;-69
2022/03/03 05:57:45;;;;;;;3.47;3.17;;;;;;;11.75;50.38;99299.98;1742003;80;21485;-70
2022/03/03 06:00:15;;;;;;;2.90;2.62;;;;;;;11.75;50.38;99300.50;1781977;80;21073;-69
2022/03/03 06:02:52;;;;;;;3.08;2.77;;;;;;;11.75;50.39;99296.51;1752982;80;21537;-69
2022/03/03 06:05:28;;;;;;;3.27;2.75;;;;;;;11.75;50.39;99295.17;1781969;80;21694;-70
2022/03/03 06:08:05;;;;;;;3.02;2.72;;;;;;;11.75;50.38;99295.17;1781780;80;20991;-70
2022/03/03 06:10:33;;;;;;;2.75;2.45;;;;;;;11.76;50.39;99296.81;1752920;80;21019;-70
2022/03/03 06:13:24;;;;;;;3.40;3.10;;;;;;;11.74;50.39;99295.69;1781495;80;21062;-69
2022/03/03 06:15:52;;;;;;;3.47;3.08;;;;;;;11.74;50.40;99293.03;1730491;83;21504;-70
2022/03/03 06:18:26;;;;;;;3.80;2.90;;;;;;;11.73;50.41;99291.36;1730471;83;21143;-70
2022/03/03 06:20:53;;;;;;;3.20;2.90;;;;;;;11.72;50.43;99287.04;1729357;83;21057;-70
2022/03/03 06:23:20;;;;;;;3.62;3.12;;;;;;;11.73;50.44;99289.22;1730675;83;21065;-69
2022/03/03 06:26:03;;;;;;;3.35;3.05;;;;;;;11.72;50.43;99288.37;1723865;83;21109;-69
2022/03/03 06:28:31;;;;;;;2.85;2.60;;;;;;;11.73;50.44;99286.56;1716353;83;21335;-69
2022/03/03 06:30:57;;;;;;;3.42;2.92;;;;;;;11.72;50.45;99288.37;1732671;82;21260;-69
2022/03/03 06:33:25;;;;;;;3.87;2.90;;;;;;;11.72;50.45;99285.70;1708959;82;21103;-70
2022/03/03 06:35:52;;;;;;;3.08;2.77;;;;;;;11.73;50.45;99292.70;1708441;82;21092;-69
2022/03/03 06:38:18;;;;;;;2.80;2.60;;;;;;;11.72;50.47;99291.03;1733062;82;21018;-69
2022/03/03 06:40:45;;;;;;;3.12;2.83;;;;;;;11.73;50.46;99290.55;1708403;82;21053;-69
2022/03/03 06:43:11;;;;;;;3.02;2.72;;;;;;;11.74;50.44;99281.54;1733714;82;21134;-70
2022/03/03 06:45:38;;;;;;;2.87;2.67;;;;;;;11.74;50.45;99282.38;1733723;82;21010;-70
2022/03/03 06:48:05;;;;;;;2.98;2.65;;;;;;;11.74;50.43;99281.54;1728936;82;21010;-69
2022/03/03 06:50:38;;;;;;;3.33;2.87;;;;;;;11.75;50.43;99275.22;1743240;82;21094;-70
2022/03/03 06:53:07;;;;;;;2.90;2.62;;;;;;;11.75;50.44;99280.54;1746411;82;21541;-69
2022/03/03 06:55:34;;;;;;;3.45;3.15;;;;;;;11.75;50.43;99284.53;1746045;82;22015;-69
2022/03/03 06:58:00;;;;;;;2.80;2.52;;;;;;;11.75;50.44;99285.86;1746000;82;21018;-70
2022/03/03 07:00:31;;;;;;;2.92;2.70;;;;;;;11.75;50.43;99279.20;1720672;82;21034;-70
2022/03/03 07:02:57;;;;;;;3.33;3.02;;;;;;;11.75;50.44;99276.55;1746466;82;21030;-69
2022/03/03 07:05:23;;;;;;;2.60;2.40;;;;;;;11.75;50.44;99285.86;1745248;82;21061;-70
2022/03/03 07:07:52;;;;;;;2.98;2.67;;;;;;;11.74;50.44;99281.54;1746282;82;21788;-69
2022/03/03 07:10:25;;;;;;;2.33;2.12;;;;;;;11.75;50.45;99279.20;1746086;82;21029;-70
2022/03/03 07:12:55;;;;;;;3.33;3.02;;;;;;;11.75;50.43;99284.53;1746436;82;21572;-69
2022/03/03 07:15:23;;;;;;;2.60;2.40;;;;;;;11.75;50.44;99277.37;1746193;82;21013;-70
2022/03/03 07:17:57;;;;;;;3.00;2.70;;;;;;;11.74;50.44;99277.06;1746060;82;21077;-68
2022/03/03 07:20:29;;;;;;;2.02;1.82;;;;;;;11.75;50.44;99280.03;1744704;82;22162;-69
2022/03/03 07:23:27;;;;;;;2.47;2.27;;;;;;;11.74;50.46;99278.88;1744855;82;21522;-69
2022/03/03 07:25:56;;;;;;;3.22;2.90;;;;;;;11.75;50.45;99273.89;1723884;81;21516;-69
2022/03/03 07:28:22;;;;;;;2.42;2.22;;;;;;;11.76;50.45;99275.52;1760415;81;21517;-69
2022/03/03 07:30:49;;;;;;;2.70;2.50;;;;;;;11.75;50.45;99281.87;1730203;81;21009;-69
2022/03/03 07:33:27;;;;;;;2.50;2.30;;;;;;;11.76;50.46;99275.52;1760595;81;21102;-70
2022/03/03 07:38:43;;;;;;;3.08;2.77;;;;;;;11.80;50.48;99272.31;1855537;76;28037;-70
2022/03/03 07:41:09;;;;;;;2.80;2.60;;;;;;;11.76;50.46;99272.38;1794029;79;20926;-70
2022/03/03 07:43:35;;;;;;;2.87;2.62;;;;;;;11.77;50.43;99271.86;1794127;79;21167;-70
2022/03/03 07:46:02;;;;;;;3.02;2.72;;;;;;;11.77;50.45;99271.34;1793898;79;21512;-69
2022/03/03 07:48:29;;;;;;;2.72;2.40;;;;;;;11.77;50.45;99269.20;1809062;78;21057;-70
2022/03/03 07:50:55;;;;;;;2.55;2.35;;;;;;;11.78;50.45;99266.84;1826516;78;21541;-69
2022/03/03 07:53:22;;;;;;;3.02;2.77;;;;;;;11.78;50.46;99269.50;1805820;78;21017;-70
2022/03/03 07:55:53;;;;;;;2.67;2.47;;;;;;;11.79;50.44;99273.83;1804965;78;21481;-69
2022/03/03 07:58:30;;;;;;;2.60;2.40;;;;;;;11.78;50.45;99266.36;1805782;78;20970;-70
2022/03/03 08:00:59;;;;;;;2.47;2.27;;;;;;;11.79;50.44;99277.30;1826622;78;21010;-69
2022/03/03 08:03:25;;;;;;;2.37;2.17;;;;;;;11.79;50.44;99263.19;1826522;78;22071;-70
2022/03/03 08:05:55;;;;;;;2.58;2.37;;;;;;;11.80;50.46;99271.47;1826093;78;21095;-69
2022/03/03 08:08:25;;;;;;;2.70;2.40;;;;;;;11.79;50.47;99267.99;1826524;78;21111;-69
2022/03/03 08:11:00;;;;;;;2.87;2.55;;;;;;;11.79;50.46;99264.52;1826448;78;21053;-69
2022/03/03 08:13:28;;;;;;;3.00;2.45;;;;;;;11.79;50.46;99264.00;1825112;78;21017;-68
2022/03/03 08:15:54;;;;;;;2.60;2.40;;;;;;;11.80;50.46;99263.00;1826147;78;21065;-69
2022/03/03 08:18:21;;;;;;;3.05;2.83;;;;;;;11.80;50.46;99258.16;1826566;78;21489;-69
2022/03/03 08:20:48;;;;;;;2.47;2.27;;;;;;;11.80;50.43;99256.34;1826474;78;21120;-70
2022/03/03 08:23:15;;;;;;;3.22;2.47;;;;;;;11.80;50.47;99259.49;1779977;78;21018;-70
2022/03/03 08:25:41;;;;;;;2.33;2.12;;;;;;;11.82;50.46;99256.17;1826489;78;20986;-70
2022/03/03 08:28:09;;;;;;;2.77;2.30;;;;;;;11.82;50.44;99249.52;1826493;78;21025;-70
2022/03/03 08:30:36;;;;;;;2.90;2.60;;;;;;;11.82;50.45;99253.51;1825342;78;21599;-69
2022/03/03 08:33:15;;;;;;;2.80;2.60;;;;;;;11.83;50.44;99251.14;1826514;78;21766;-70
2022/03/03 08:35:41;;;;;;;2.40;2.17;;;;;;;11.85;50.44;99256.29;1822142;78;21037;-69
2022/03/03 08:38:19;;;;;;;2.92;2.65;;;;;;;11.85;50.42;99257.10;1802182;78;21022;-68
2022/03/03 08:40:46;;;;;;;2.45;2.17;;;;;;;11.84;50.44;99248.81;1821278;78;21057;-69
2022/03/03 08:43:13;;;;;;;2.60;2.40;;;;;;;11.85;50.43;99255.77;1813617;78;21016;-69
2022/03/03 08:45:40;;;;;;;2.40;2.20;;;;;;;11.85;50.43;99255.77;1820884;78;21124;-69
2022/03/03 08:48:10;;;;;;;2.42;2.22;;;;;;;11.86;50.44;99257.44;1797738;78;20987;-69
2022/03/03 08:50:39;;;;;;;2.62;2.42;;;;;;;11.86;50.43;99248.13;1768405;80;21068;-69
2022/03/03 08:53:05;;;;;;;3.02;2.72;;;;;;;11.85;50.44;99249.13;1788072;80;21001;-69
2022/03/03 08:55:33;;;;;;;2.62;2.37;;;;;;;11.87;50.42;99253.75;1768397;80;21166;-69
2022/03/03 08:58:01;;;;;;;2.67;2.47;;;;;;;11.87;50.44;99251.08;1787965;79;21013;-69
2022/03/03 09:00:28;;;;;;;2.22;2.02;;;;;;;11.88;50.43;99254.08;1788064;80;21038;-69
2022/03/03 09:02:54;;;;;;;2.17;1.98;;;;;;;11.89;50.41;99249.09;1788264;79;21025;-69
2022/03/03 09:05:21;;;;;;;2.67;2.47;;;;;;;11.89;50.41;99253.08;1789159;78;21072;-70
2022/03/03 09:07:47;;;;;;;2.58;2.37;;;;;;;11.91;50.41;99256.89;1788008;80;20986;-70
2022/03/03 09:10:14;;;;;;;2.22;2.02;;;;;;;11.90;50.41;99258.73;1788010;80;21848;-70
2022/03/03 09:12:41;;;;;;;2.67;2.42;;;;;;;11.91;50.41;99257.70;1787953;79;20998;-69
2022/03/03 09:15:09;;;;;;;2.50;2.30;;;;;;;11.92;50.41;99257.22;1768325;80;21584;-69
2022/03/03 09:17:37;;;;;;;2.40;2.20;;;;;;;11.92;50.42;99259.88;1768135;80;20990;-68
2022/03/03 09:20:07;;;;;;;2.58;2.37;;;;;;;11.92;50.40;99257.22;1788229;80;21332;-69
2022/03/03 09:22:33;;;;;;;2.67;2.47;;;;;;;11.93;50.39;99262.33;1789405;78;21073;-70
2022/03/03 09:24:59;;;;;;;2.98;2.70;;;;;;;11.93;50.38;99257.02;1768383;80;21019;-70
2022/03/03 09:28:05;;;;;;;2.65;2.05;;;;;;;11.93;50.40;99255.68;1788089;80;21065;-69
2022/03/03 09:30:34;;;;;;;2.52;2.33;;;;;;;11.95;50.39;99257.64;1768894;80;21037;-69
2022/03/03 09:33:00;;;;;;;2.92;2.60;;;;;;;11.94;50.38;99252.53;1797128;78;21022;-70
2022/03/03 09:35:27;;;;;;;2.72;2.47;;;;;;;11.94;50.40;99254.68;1820313;78;21122;-69
2022/03/03 09:37:53;;;;;;;2.55;2.35;;;;;;;11.94;50.38;99250.69;1816631;78;21033;-69
2022/03/03 09:40:20;;;;;;;2.62;2.42;;;;;;;11.95;50.40;99252.32;1814538;79;21061;-69
2022/03/03 09:42:59;;;;;;;2.60;2.40;;;;;;;11.95;50.39;99246.18;1814186;78;21014;-70
2022/03/03 09:45:25;;;;;;;2.22;2.02;;;;;;;11.95;50.40;99252.32;1814392;78;21013;-68
2022/03/03 09:47:55;;;;;;;2.42;2.17;;;;;;;11.96;50.38;99255.83;1813444;78;21538;-69
2022/03/03 09:50:22;;;;;;;2.40;2.15;;;;;;;11.97;50.39;99248.14;1808032;79;21490;-68
2022/03/03 09:52:50;;;;;;;2.30;2.10;;;;;;;11.96;50.38;99246.52;1803311;79;21023;-69
2022/03/03 09:55:17;;;;;;;2.55;2.35;;;;;;;11.97;50.37;99245.48;1802536;78;21006;-68
2022/03/03 09:57:44;;;;;;;2.67;2.47;;;;;;;11.96;50.38;99244.66;1782542;80;21006;-69
2022/03/03 10:00:12;;;;;;;2.60;2.40;;;;;;;11.97;50.39;99242.30;1782346;79;21114;-69
2022/03/03 10:03:08;;;;;;;2.20;2.00;;;;;;;11.97;50.38;99238.31;1782681;79;21338;-69
2022/03/03 10:05:38;;;;;;;2.85;2.65;;;;;;;11.97;50.39;99238.31;1797817;79;21477;-68
2022/03/03 10:08:11;;;;;;;2.80;2.45;;;;;;;11.98;50.37;99233.84;1782910;80;21509;-69
2022/03/03 10:10:41;;;;;;;2.25;2.05;;;;;;;11.97;50.38;99231.66;1771540;80;21010;-70
2022/03/03 10:13:08;;;;;;;2.87;2.45;;;;;;;11.97;50.39;99232.17;1783504;79;21095;-68
2022/03/03 10:15:36;;;;;;;2.58;2.30;;;;;;;11.98;50.37;99228.00;1782360;79;21049;-70
2022/03/03 10:18:09;;;;;;;2.70;2.50;;;;;;;11.99;50.40;99230.14;1782671;79;20990;-70
2022/03/03 10:20:54;;;;;;;2.70;2.50;;;;;;;11.97;50.39;99222.34;1771975;80;21561;-69
2022/03/03 10:23:36;;;;;;;2.50;2.30;;;;;;;12.00;50.37;99224.64;1771820;80;21041;-69
2022/03/03 10:26:06;;;;;;;3.27;2.45;;;;;;;12.00;50.37;99227.30;1782438;79;22325;-69
2022/03/03 10:28:36;;;;;;;2.85;2.60;;;;;;;12.00;50.36;99219.31;1783374;79;20998;-69
2022/03/03 10:31:22;;;;;;;2.50;2.30;;;;;;;12.01;50.39;99221.45;1774786;79;21061;-69
2022/03/03 10:33:43;;;;;;;2.90;2.60;;;;;;;12.01;50.39;99220.12;1802778;79;21073;-69
2022/03/03 10:36:19;;;;;;;2.90;2.50;;;;;;;12.02;50.39;99216.98;1803399;79;21240;-67
2022/03/03 10:38:55;;;;;;;2.72;2.52;;;;;;;12.02;50.39;99216.47;1803634;78;21101;-69
2022/03/03 10:41:39;;;;;;;3.20;2.90;;;;;;;12.02;50.38;99213.80;1799717;78;20981;-69
2022/03/03 10:44:12;;;;;;;2.62;2.42;;;;;;;12.03;50.38;99213.29;1819859;78;21537;-70
2022/03/03 10:47:11;;;;;;;2.60;2.40;;;;;;;12.03;50.39;99210.63;1819005;78;20990;-69
2022/03/03 10:49:41;;;;;;;2.80;2.60;;;;;;;12.04;50.41;99209.11;1819242;78;21037;-69
2022/03/03 10:52:17;;;;;;;2.60;2.40;;;;;;;12.03;50.41;99212.77;1819714;78;21128;-69
2022/03/03 10:54:57;;;;;;;2.33;2.12;;;;;;;12.04;50.39;99210.95;1816643;78;20997;-69
2022/03/03 10:57:41;;;;;;;2.98;2.67;;;;;;;12.03;50.40;99199.98;1817627;78;21013;-69
2022/03/03 11:00:13;;;;;;;3.10;2.62;;;;;;;12.05;50.43;99201.94;1800010;78;20986;-69
2022/03/03 11:02:43;;;;;;;3.30;3.00;;;;;;;12.04;50.41;99194.47;1816930;78;21009;-70
2022/03/03 11:05:11;;;;;;;2.60;2.40;;;;;;;12.05;50.43;99189.95;1788222;79;21805;-69
2022/03/03 11:07:45;;;;;;;2.83;2.62;;;;;;;12.06;50.44;99191.63;1787894;79;21002;-70
2022/03/03 11:10:16;;;;;;;2.70;2.42;;;;;;;12.07;50.41;99195.91;1768607;80;21017;-70
2022/03/03 11:12:44;;;;;;;3.00;2.70;;;;;;;12.07;50.44;99193.25;1788222;79;21022;-70
2022/03/03 11:15:14;;;;;;;3.12;2.83;;;;;;;12.07;50.42;99191.44;1787938;79;20986;-69
2022/03/03 11:17:41;;;;;;;2.80;2.55;;;;;;;12.07;50.42;99195.43;1787879;79;21616;-69
2022/03/03 11:20:12;;;;;;;2.90;2.60;;;;;;;12.08;50.42;99189.59;1778901;78;21527;-69
2022/03/03 11:22:41;;;;;;;2.55;2.27;;;;;;;12.08;50.41;99191.73;1819860;78;21060;-69
2022/03/03 11:25:19;;;;;;;3.10;2.80;;;;;;;12.10;50.40;99194.22;1820200;78;21521;-69
2022/03/03 11:27:46;;;;;;;2.50;2.30;;;;;;;12.10;50.39;99187.56;1820235;78;21002;-69
2022/03/03 11:30:31;;;;;;;2.62;2.42;;;;;;;12.10;50.40;99191.55;1800567;78;21194;-69
2022/03/03 11:33:24;;;;;;;3.17;2.87;;;;;;;12.11;50.39;99183.86;1819318;78;21018;-69
2022/03/03 11:36:03;;;;;;;2.65;2.45;;;;;;;12.10;50.39;99179.05;1820443;78;20993;-69
2022/03/03 11:38:45;;;;;;;3.10;2.77;;;;;;;12.10;50.39;99175.58;1818603;78;21493;-70
2022/03/03 11:41:12;;;;;;;2.83;2.60;;;;;;;12.10;50.39;99176.39;1824872;78;20994;-70
2022/03/03 11:43:52;;;;;;;2.70;2.50;;;;;;;12.10;50.40;99178.23;1826007;78;21124;-69